Time;durP1;ratioP1;P1;durP2;ratioP2;P2;SDS_P1;SDS_P2;PMS_P1;PMS_P2;Temp;Humidity;BMP_temperature;BMP_pressure;BME280_temperature;BME280_humidity;BME280_pressure;Samples;Min_cycle;Max_cycle;Signal;HPM_P1;HPM_P2
2023/06/21 00:05:26;;;;;;;1999.90;999.90;;;21.20;99.90;;;;;;6729571;88;20212;-79
2023/06/21 00:15:26;;;;;;;1999.90;999.90;;;20.90;99.90;;;;;;6736713;88;20203;-79
2023/06/21 00:25:27;;;;;;;1999.90;999.90;;;20.80;99.90;;;;;;6728182;88;20181;-78
2023/06/21 00:35:27;;;;;;;1999.90;999.90;;;20.80;99.90;;;;;;6717675;88;20197;-79
2023/06/21 00:45:28;;;;;;;1999.90;999.90;;;20.80;99.90;;;;;;6717808;88;20205;-78
2023/06/21 00:55:29;;;;;;;1999.90;999.90;;;20.60;99.90;;;;;;6736569;88;20236;-79
2023/06/21 01:05:30;;;;;;;1999.90;999.90;;;20.50;99.90;;;;;;6730830;88;20222;-79
2023/06/21 01:15:41;;;;;;;1999.90;999.90;;;20.30;99.90;;;;;;6729862;88;20195;-79
2023/06/21 01:26:09;;;;;;;1999.90;999.90;;;20.20;99.90;;;;;;6711800;88;20194;-78
2023/06/21 01:36:10;;;;;;;1999.90;999.90;;;20.20;99.90;;;;;;6720134;88;20739;-79
2023/06/21 01:46:12;;;;;;;1999.90;999.90;;;20.20;99.90;;;;;;6735366;88;20235;-79
2023/06/21 01:56:16;;;;;;;1999.90;999.90;;;20.20;99.90;;;;;;6709105;88;20302;-79
2023/06/21 02:06:20;;;;;;;1999.90;999.90;;;20.00;99.90;;;;;;6728888;88;20204;-79
2023/06/21 02:16:25;;;;;;;1999.90;999.90;;;19.90;99.90;;;;;;6725104;88;20585;-79
2023/06/21 02:26:26;;;;;;;1999.90;999.90;;;19.70;99.90;;;;;;6726059;88;20244;-78
2023/06/21 02:36:26;;;;;;;1999.90;999.90;;;19.60;99.90;;;;;;6723613;88;20201;-78
2023/06/21 02:46:27;;;;;;;1999.90;999.90;;;19.50;99.90;;;;;;6725661;88;20211;-78
2023/06/21 02:56:30;;;;;;;1999.90;999.90;;;19.40;99.90;;;;;;6739914;88;20191;-77
2023/06/21 03:06:33;;;;;;;1999.90;999.90;;;19.40;99.90;;;;;;6724843;88;20256;-78
2023/06/21 03:16:34;;;;;;;1999.90;999.90;;;19.30;99.90;;;;;;6713018;88;20228;-80
2023/06/21 03:26:35;;;;;;;1999.90;999.90;;;19.20;99.90;;;;;;6739882;88;20183;-78
2023/06/21 03:46:39;;;;;;;1999.90;999.90;;;19.20;99.90;;;;;;6665234;88;20223;-78
2023/06/21 03:56:40;;;;;;;1999.90;999.90;;;19.10;99.90;;;;;;6642112;89;20211;-79
2023/06/21 04:06:40;;;;;;;1999.90;999.90;;;19.30;99.90;;;;;;6642638;88;20605;-79
2023/06/21 04:16:42;;;;;;;1999.90;999.90;;;19.60;99.90;;;;;;6638585;88;20605;-78
2023/06/21 04:26:42;;;;;;;1999.90;999.90;;;19.90;99.90;;;;;;6639249;88;20201;-78
2023/06/21 04:36:47;;;;;;;1999.90;999.90;;;19.90;99.90;;;;;;6642633;89;20328;-79
2023/06/21 04:46:47;;;;;;;1999.90;999.90;;;19.90;99.90;;;;;;6643785;88;20217;-79
2023/06/21 04:56:49;;;;;;;1999.90;999.90;;;19.90;99.90;;;;;;6646768;89;20247;-79
2023/06/21 05:06:50;;;;;;;1999.90;999.90;;;20.00;99.90;;;;;;6639501;89;20591;-79
2023/06/21 05:16:50;;;;;;;1999.90;999.90;;;20.30;99.90;;;;;;6641906;89;20194;-79
2023/06/21 05:26:51;;;;;;;1999.90;999.90;;;20.40;99.90;;;;;;6635246;88;20259;-81
2023/06/21 05:36:51;;;;;;;1999.90;999.90;;;20.60;99.90;;;;;;6642158;88;21089;-82
2023/06/21 05:46:52;;;;;;;1999.90;999.90;;;20.80;99.90;;;;;;6706534;88;20265;-80
2023/06/21 05:56:55;;;;;;;1999.90;999.90;;;21.10;99.90;;;;;;6706190;88;20295;-80
2023/06/21 06:06:55;;;;;;;1999.90;999.90;;;21.40;99.90;;;;;;6711743;88;20187;-80
2023/06/21 06:16:56;;;;;;;1999.90;999.90;;;21.50;99.90;;;;;;6702303;88;20681;-80
2023/06/21 06:26:58;;;;;;;1999.90;999.90;;;21.80;99.90;;;;;;6708867;88;20197;-82
2023/06/21 06:36:58;;;;;;;1999.90;999.90;;;22.30;99.90;;;;;;6729516;88;20209;-82
2023/06/21 06:47:00;;;;;;;1999.90;999.90;;;22.40;99.90;;;;;;6730013;88;20211;-81
2023/06/21 06:57:01;;;;;;;1999.90;999.90;;;23.10;99.90;;;;;;6723592;88;20253;-81
2023/06/21 07:07:01;;;;;;;1999.90;999.90;;;23.50;99.90;;;;;;6714659;88;20727;-80
2023/06/21 07:17:02;;;;;;;1999.90;999.90;;;24.50;99.90;;;;;;6719212;88;20257;-78
2023/06/21 07:27:03;;;;;;;1999.90;999.90;;;25.40;99.90;;;;;;6729474;88;20158;-79
2023/06/21 07:37:04;;;;;;;1999.90;999.90;;;25.80;99.90;;;;;;6713400;88;20351;-79
2023/06/21 07:47:04;;;;;;;1999.90;999.90;;;26.90;99.90;;;;;;6631546;88;20207;-79
2023/06/21 07:57:05;;;;;;;1999.90;999.90;;;27.00;99.90;;;;;;6635604;88;20178;-78
2023/06/21 08:07:06;;;;;;;1999.90;999.90;;;27.60;99.90;;;;;;6645447;88;20198;-80
2023/06/21 08:17:06;;;;;;;1999.90;999.90;;;27.00;99.90;;;;;;6638626;88;20276;-80
2023/06/21 08:27:07;;;;;;;1999.90;999.90;;;26.40;99.90;;;;;;6631250;88;20205;-80
2023/06/21 08:37:07;;;;;;;1999.90;999.90;;;28.10;99.90;;;;;;6636813;88;20214;-79
2023/06/21 08:47:08;;;;;;;1999.90;999.90;;;29.70;99.80;;;;;;6652984;88;20340;-80
2023/06/21 08:57:22;;;;;;;1999.90;999.90;;;29.60;99.70;;;;;;6648321;88;20244;-78
2023/06/21 09:07:23;;;;;;;1999.90;999.90;;;30.80;97.90;;;;;;6651363;88;20205;-80
2023/06/21 09:17:25;;;;;;;1999.90;999.90;;;31.30;96.50;;;;;;6664025;88;20198;-80
2023/06/21 09:27:26;;;;;;;1999.90;999.90;;;31.10;95.70;;;;;;6675012;88;20218;-79
2023/06/21 09:37:33;;;;;;;;;;;30.60;96.80;;;;;;6647076;88;20203;-80
2023/06/21 09:47:54;;;;;;;1999.90;999.90;;;32.10;94.30;;;;;;6694763;77;20561;-78
2023/06/21 09:57:57;;;;;;;;;;;31.50;94.50;;;;;;6748830;87;20325;-81
2023/06/21 10:07:57;;;;;;;1999.90;999.90;;;30.90;93.30;;;;;;6771068;87;20045;-79
2023/06/21 10:17:58;;;;;;;1999.90;999.90;;;30.30;95.10;;;;;;6751867;87;20686;-79
2023/06/21 10:28:00;;;;;;;;;;;31.30;94.20;;;;;;6746972;87;20206;-79
2023/06/21 10:38:18;;;;;;;1999.90;999.90;;;33.00;92.40;;;;;;6768709;87;20053;-80
2023/06/21 10:48:20;;;;;;;1999.90;999.90;;;32.00;93.60;;;;;;6752742;87;20321;-80
2023/06/21 10:58:24;;;;;;;1999.90;999.90;;;31.60;93.30;;;;;;6734128;87;20254;-80
2023/06/21 11:08:37;;;;;;;1999.90;999.90;;;33.10;92.20;;;;;;6774367;87;20192;-80
2023/06/21 11:18:38;;;;;;;1999.90;999.90;;;32.80;91.20;;;;;;6752981;87;20200;-80
2023/06/21 11:28:49;;;;;;;1999.90;999.90;;;32.30;92.10;;;;;;6777978;87;20637;-80
2023/06/21 11:39:04;;;;;;;1999.90;999.90;;;33.20;91.00;;;;;;6765639;87;20369;-79
2023/06/21 11:49:05;;;;;;;1999.90;999.90;;;32.10;91.00;;;;;;6762348;87;20228;-79
2023/06/21 11:59:07;;;;;;;1999.90;999.90;;;30.90;93.40;;;;;;6752184;87;20201;-79
2023/06/21 12:09:09;;;;;;;1999.90;999.90;;;32.30;93.40;;;;;;6764843;87;20259;-79
2023/06/21 12:19:10;;;;;;;1999.90;999.90;;;33.50;92.00;;;;;;6763307;87;20616;-80
2023/06/21 12:29:10;;;;;;;1999.90;999.90;;;33.40;91.90;;;;;;6751926;87;20255;-80
2023/06/21 12:39:14;;;;;;;1999.90;999.90;;;32.70;91.90;;;;;;6730492;87;20338;-80
2023/06/21 12:49:14;;;;;;;1999.90;999.90;;;33.50;91.50;;;;;;6743403;87;20671;-79
2023/06/21 12:59:15;;;;;;;1999.90;999.90;;;32.80;92.80;;;;;;6754644;87;20274;-79
2023/06/21 13:09:16;;;;;;;1999.90;999.90;;;31.50;93.60;;;;;;6735656;87;20203;-80
2023/06/21 13:19:16;;;;;;;1999.90;999.90;;;31.00;94.50;;;;;;6759649;87;20234;-79
2023/06/21 13:29:17;;;;;;;1999.90;999.90;;;31.10;93.60;;;;;;6763850;87;20188;-80
2023/06/21 13:39:18;;;;;;;1999.90;999.90;;;30.40;94.30;;;;;;6762286;87;20842;-79
2023/06/21 13:49:19;;;;;;;1999.90;999.90;;;29.00;99.90;;;;;;6753239;87;20295;-76
2023/06/21 13:59:19;;;;;;;1999.90;999.90;;;26.20;99.90;;;;;;6748829;87;20183;-77
2023/06/21 14:09:20;;;;;;;1999.90;999.90;;;24.70;99.90;;;;;;6729170;87;20630;-77
2023/06/21 14:19:20;;;;;;;1999.90;999.90;;;24.80;99.90;;;;;;6749247;87;20204;-77
2023/06/21 14:29:21;;;;;;;1999.90;999.90;;;25.80;99.90;;;;;;6757038;87;20206;-77
2023/06/21 14:39:21;;;;;;;1999.90;999.90;;;26.50;99.90;;;;;;6743371;87;20651;-76
2023/06/21 14:49:22;;;;;;;1999.90;999.90;;;27.70;99.90;;;;;;6732413;87;20586;-77
2023/06/21 14:59:25;;;;;;;1999.90;999.90;;;28.40;99.90;;;;;;6740464;87;20310;-78
2023/06/21 15:09:25;;;;;;;1999.90;999.90;;;29.10;99.90;;;;;;6737342;87;20233;-76
2023/06/21 15:19:26;;;;;;;1999.90;999.90;;;29.70;99.90;;;;;;6740586;87;20681;-76
2023/06/21 15:29:26;;;;;;;1999.90;999.90;;;29.70;99.90;;;;;;6744382;87;20289;-76
2023/06/21 15:39:27;;;;;;;1999.90;999.90;;;30.20;99.90;;;;;;6735582;87;20254;-76
2023/06/21 15:49:28;;;;;;;1999.90;999.90;;;30.20;99.90;;;;;;6740762;77;20276;-76
2023/06/21 15:59:28;;;;;;;1999.90;999.90;;;30.50;99.90;;;;;;6721866;88;20196;-77
2023/06/21 16:09:29;;;;;;;1999.90;999.90;;;30.10;99.90;;;;;;6745034;88;20212;-76
2023/06/21 16:19:29;;;;;;;1999.90;999.90;;;30.20;99.90;;;;;;6686042;88;20603;-77
2023/06/21 16:29:30;;;;;;;1999.90;999.90;;;29.50;99.90;;;;;;6702685;88;20212;-80
2023/06/21 16:39:30;;;;;;;1999.90;999.90;;;29.30;99.90;;;;;;6731380;88;20833;-77
2023/06/21 16:49:31;;;;;;;1999.90;999.90;;;28.90;99.90;;;;;;6710877;88;20206;-77
2023/06/21 16:59:31;;;;;;;1999.90;999.90;;;29.10;99.90;;;;;;6732641;88;20232;-77
2023/06/21 17:09:33;;;;;;;1999.90;999.90;;;28.80;99.90;;;;;;6729766;88;20209;-77
2023/06/21 17:19:33;;;;;;;1999.90;999.90;;;28.70;99.90;;;;;;6698438;88;20183;-78
2023/06/21 17:29:34;;;;;;;1999.90;999.90;;;28.60;99.90;;;;;;6733467;88;20220;-79
2023/06/21 17:39:35;;;;;;;1999.90;999.90;;;28.50;99.90;;;;;;6674764;89;20250;-77
2023/06/21 17:49:35;;;;;;;1999.90;999.90;;;28.00;99.90;;;;;;6665156;88;20191;-78
2023/06/21 17:59:36;;;;;;;1999.90;999.90;;;28.10;99.90;;;;;;6667390;88;20265;-78
2023/06/21 18:09:36;;;;;;;1999.90;999.90;;;27.80;99.90;;;;;;6668236;89;20276;-78
2023/06/21 18:19:38;;;;;;;1999.90;999.90;;;27.60;99.90;;;;;;6669447;88;20262;-77
2023/06/21 18:29:39;;;;;;;1999.90;999.90;;;27.40;99.90;;;;;;6670694;88;20614;-80
2023/06/21 18:39:39;;;;;;;1999.90;999.90;;;27.10;99.90;;;;;;6667068;89;20240;-80
2023/06/21 18:49:43;;;;;;;1999.90;999.90;;;26.90;99.90;;;;;;6668513;89;20186;-78
2023/06/21 18:59:43;;;;;;;1999.90;999.90;;;26.70;99.90;;;;;;6736320;88;20664;-80
2023/06/21 19:09:44;;;;;;;1999.90;999.90;;;26.40;99.90;;;;;;6740717;88;20208;-78
2023/06/21 19:19:44;;;;;;;1999.90;999.90;;;26.20;99.90;;;;;;6740923;88;20324;-78
2023/06/21 19:29:45;;;;;;;1999.90;999.90;;;25.80;99.90;;;;;;6740977;88;20680;-79
2023/06/21 19:39:49;;;;;;;1999.90;999.90;;;25.60;99.90;;;;;;6757887;88;20218;-79
2023/06/21 19:49:49;;;;;;;1999.90;999.90;;;25.40;99.90;;;;;;6759805;88;20337;-78
2023/06/21 19:59:50;;;;;;;1999.90;999.90;;;25.20;99.90;;;;;;6764462;88;20582;-78
2023/06/21 20:09:51;;;;;;;1999.90;999.90;;;24.90;99.90;;;;;;6760102;88;20491;-79
2023/06/21 20:19:52;;;;;;;1999.90;999.90;;;24.80;99.90;;;;;;6755899;88;20204;-79
2023/06/21 20:29:52;;;;;;;1999.90;999.90;;;24.50;99.90;;;;;;6753846;88;20213;-78
2023/06/21 20:39:54;;;;;;;1999.90;999.90;;;24.30;99.90;;;;;;6758071;87;21077;-77
2023/06/21 20:49:54;;;;;;;1999.90;999.90;;;24.20;99.90;;;;;;6752333;88;20196;-78
2023/06/21 20:59:55;;;;;;;1999.90;999.90;;;24.00;99.90;;;;;;6722790;88;20207;-78
2023/06/21 21:09:56;;;;;;;1999.90;999.90;;;24.00;99.90;;;;;;6747154;88;20261;-78
2023/06/21 21:19:56;;;;;;;1999.90;999.90;;;23.90;99.90;;;;;;6697605;88;20225;-78
2023/06/21 21:29:57;;;;;;;1999.90;999.90;;;23.70;99.90;;;;;;6717364;88;20520;-78
2023/06/21 21:39:57;;;;;;;1999.90;999.90;;;23.60;99.90;;;;;;6708760;88;20528;-78
2023/06/21 21:49:58;;;;;;;1999.90;999.90;;;23.50;99.90;;;;;;6741780;88;20193;-76
2023/06/21 21:59:59;;;;;;;1999.90;999.90;;;23.40;99.90;;;;;;6745528;88;20199;-78
2023/06/21 22:10:01;;;;;;;1999.90;999.90;;;23.20;99.90;;;;;;6747326;88;20228;-77
2023/06/21 22:20:05;;;;;;;1999.90;999.90;;;23.00;99.90;;;;;;6746942;88;20210;-78
2023/06/21 22:30:07;;;;;;;1999.90;999.90;;;22.80;99.90;;;;;;6745595;88;20681;-78
2023/06/21 22:40:09;;;;;;;1999.90;999.90;;;22.70;99.90;;;;;;6667247;87;20286;-77
2023/06/21 22:50:09;;;;;;;1999.90;999.90;;;22.80;99.90;;;;;;6694158;88;20700;-78
2023/06/21 23:00:11;;;;;;;1999.90;999.90;;;22.80;99.90;;;;;;6749867;88;20184;-78
2023/06/21 23:10:11;;;;;;;1999.90;999.90;;;22.80;99.90;;;;;;6736148;88;20208;-78
2023/06/21 23:20:15;;;;;;;1999.90;999.90;;;22.60;99.90;;;;;;6730174;88;20198;-79
2023/06/21 23:30:17;;;;;;;1999.90;999.90;;;22.50;99.90;;;;;;6766005;88;20180;-79
2023/06/21 23:40:18;;;;;;;1999.90;999.90;;;22.40;99.90;;;;;;6762647;87;20187;-77
2023/06/21 23:50:19;;;;;;;1999.90;999.90;;;22.40;99.90;;;;;;6751609;88;20217;-77
